createdAt,value
2022-07-26T00:00:57.865Z,4.30
2022-07-26T00:02:01.941Z,3.90
2022-07-26T00:03:05.771Z,4.38
2022-07-26T00:04:09.153Z,4.18
2022-07-26T00:05:11.722Z,4.43
2022-07-26T00:06:15.065Z,4.55
2022-07-26T00:07:18.224Z,4.45
2022-07-26T00:08:20.336Z,4.20
2022-07-26T00:09:24.524Z,3.90
2022-07-26T00:10:26.873Z,3.60
2022-07-26T00:11:33.620Z,3.58
2022-07-26T00:12:36.115Z,3.75
2022-07-26T00:13:39.566Z,3.90
2022-07-26T00:14:42.854Z,4.03
2022-07-26T00:15:46.057Z,3.67
2022-07-26T00:16:50.326Z,3.40
2022-07-26T00:17:52.577Z,3.83
2022-07-26T00:18:57.793Z,3.10
2022-07-26T00:20:00.256Z,3.60
2022-07-26T00:21:03.342Z,3.40
2022-07-26T00:22:24.070Z,3.75
2022-07-26T00:24:35.100Z,3.45
2022-07-26T00:25:38.573Z,3.50
2022-07-26T00:26:40.675Z,2.97
2022-07-26T00:27:43.735Z,2.80
2022-07-26T00:28:47.640Z,3.15
2022-07-26T00:29:50.924Z,3.17
2022-07-26T00:30:53.103Z,2.90
2022-07-26T00:31:56.788Z,2.83
2022-07-26T00:32:59.338Z,3.38
2022-07-26T00:34:03.856Z,3.20
2022-07-26T00:35:07.143Z,3.10
2022-07-26T00:36:10.582Z,2.90
2022-07-26T00:37:15.952Z,3.00
2022-07-26T00:38:22.955Z,2.90
2022-07-26T00:39:25.349Z,3.17
2022-07-26T00:40:28.776Z,2.92
2022-07-26T00:41:31.939Z,3.03
2022-07-26T00:42:35.982Z,3.05
2022-07-26T00:43:38.566Z,3.08
2022-07-26T00:44:46.812Z,2.75
2022-07-26T00:45:50.663Z,3.22
2022-07-26T00:46:54.297Z,3.08
2022-07-26T00:47:56.476Z,2.90
2022-07-26T00:49:00.387Z,3.00
2022-07-26T00:50:04.856Z,2.50
2022-07-26T00:51:08.034Z,3.45
2022-07-26T00:52:11.571Z,2.60
2022-07-26T00:53:15.520Z,2.72
2022-07-26T00:54:18.129Z,2.30
2022-07-26T00:55:21.962Z,3.00
2022-07-26T00:56:24.889Z,2.63
2022-07-26T00:57:28.321Z,2.80
2022-07-26T00:58:30.663Z,2.40
2022-07-26T00:59:34.543Z,2.67
2022-07-26T01:00:37.945Z,3.08
2022-07-26T01:01:42.239Z,2.83
2022-07-26T01:02:45.606Z,2.83
2022-07-26T01:03:53.493Z,2.90
2022-07-26T01:04:58.434Z,2.78
2022-07-26T01:06:03.417Z,3.20
2022-07-26T01:07:14.847Z,2.92
2022-07-26T01:08:18.693Z,2.95
2022-07-26T01:09:21.372Z,2.80
2022-07-26T01:10:25.270Z,3.03
2022-07-26T01:11:28.117Z,2.80
2022-07-26T01:12:31.403Z,3.13
2022-07-26T01:13:35.522Z,2.70
2022-07-26T01:14:42.977Z,3.10
2022-07-26T01:15:45.056Z,2.78
2022-07-26T01:16:48.264Z,3.00
2022-07-26T01:17:50.514Z,2.83
2022-07-26T01:18:55.817Z,2.85
2022-07-26T01:19:58.513Z,3.25
2022-07-26T01:21:13.452Z,2.60
2022-07-26T01:22:17.805Z,2.90
2022-07-26T01:23:22.433Z,3.38
2022-07-26T01:24:24.585Z,3.40
2022-07-26T01:25:31.647Z,3.15
2022-07-26T01:26:34.284Z,2.78
2022-07-26T01:27:42.576Z,3.00
2022-07-26T01:28:46.830Z,2.83
2022-07-26T01:29:54.077Z,3.08
2022-07-26T01:30:56.639Z,3.17
2022-07-26T01:32:00.025Z,3.20
2022-07-26T01:33:02.447Z,3.20
2022-07-26T01:34:11.131Z,3.60
2022-07-26T01:35:16.882Z,3.35
2022-07-26T01:36:20.546Z,3.22
2022-07-26T01:37:25.044Z,2.88
2022-07-26T01:38:28.033Z,3.17
2022-07-26T01:39:31.328Z,3.53
2022-07-26T01:40:34.235Z,2.90
2022-07-26T01:41:38.565Z,3.15
2022-07-26T01:42:41.608Z,3.38
2022-07-26T01:43:45.231Z,3.00
2022-07-26T01:44:48.398Z,3.05
2022-07-26T01:45:52.779Z,3.13
2022-07-26T01:46:55.239Z,3.53
2022-07-26T01:47:58.754Z,3.38
2022-07-26T01:49:02.105Z,3.10
2022-07-26T01:50:06.706Z,3.58
2022-07-26T01:51:08.917Z,3.03
2022-07-26T01:52:12.390Z,3.75
2022-07-26T01:53:16.213Z,3.35
2022-07-26T01:54:22.526Z,3.08
2022-07-26T01:55:27.541Z,3.28
2022-07-26T01:56:31.096Z,3.50
2022-07-26T01:57:33.150Z,3.72
2022-07-26T01:58:36.236Z,3.75
2022-07-26T01:59:38.329Z,3.40
2022-07-26T02:00:41.893Z,3.25
2022-07-26T02:01:44.315Z,3.70
2022-07-26T02:02:47.724Z,3.70
2022-07-26T02:03:50.848Z,3.58
2022-07-26T02:04:59.863Z,3.47
2022-07-26T02:06:03.727Z,3.38
2022-07-26T02:07:13.007Z,3.28
2022-07-26T02:08:18.140Z,3.40
2022-07-26T02:09:24.758Z,3.13
2022-07-26T02:10:50.789Z,3.63
2022-07-26T02:11:53.168Z,3.58
2022-07-26T02:12:56.505Z,3.63
2022-07-26T02:13:58.638Z,3.38
2022-07-26T02:15:02.331Z,3.80
2022-07-26T02:16:07.047Z,3.58
2022-07-26T02:17:10.719Z,3.40
2022-07-26T02:18:13.621Z,3.35
2022-07-26T02:19:17.215Z,3.10
2022-07-26T02:20:19.506Z,3.75
2022-07-26T02:21:22.880Z,3.35
2022-07-26T02:22:25.300Z,3.65
2022-07-26T02:23:30.771Z,3.20
2022-07-26T02:24:33.843Z,3.50
2022-07-26T02:25:36.968Z,3.17
2022-07-26T02:26:38.994Z,3.38
2022-07-26T02:27:43.347Z,3.50
2022-07-26T02:28:46.269Z,3.30
2022-07-26T02:29:49.765Z,3.60
2022-07-26T02:30:52.197Z,3.47
2022-07-26T02:31:56.074Z,3.33
2022-07-26T02:32:58.076Z,3.15
2022-07-26T02:34:01.451Z,3.97
2022-07-26T02:35:04.542Z,3.67
2022-07-26T02:36:08.984Z,3.10
2022-07-26T02:37:13.521Z,3.20
2022-07-26T02:38:20.266Z,3.47
2022-07-26T02:39:28.152Z,3.40
2022-07-26T02:40:31.485Z,3.38
2022-07-26T02:41:33.610Z,3.20
2022-07-26T02:42:36.813Z,4.03
2022-07-26T02:43:39.351Z,3.45
2022-07-26T02:44:43.115Z,3.65
2022-07-26T02:46:01.711Z,3.55
2022-07-26T02:47:05.941Z,3.45
2022-07-26T02:48:08.794Z,3.13
2022-07-26T02:49:12.994Z,3.40
2022-07-26T02:50:17.610Z,3.42
2022-07-26T02:51:21.151Z,3.75
2022-07-26T02:52:23.430Z,3.10
2022-07-26T02:53:26.639Z,3.17
2022-07-26T02:54:30.202Z,3.42
2022-07-26T02:55:33.502Z,3.42
2022-07-26T02:56:35.827Z,4.03
2022-07-26T02:57:45.413Z,3.60
2022-07-26T02:58:49.217Z,3.80
2022-07-26T02:59:52.630Z,3.30
2022-07-26T03:00:57.134Z,3.47
2022-07-26T03:01:59.672Z,3.50
2022-07-26T03:03:03.304Z,3.45
2022-07-26T03:04:07.907Z,2.97
2022-07-26T03:05:11.731Z,4.25
2022-07-26T03:06:13.869Z,3.72
2022-07-26T03:07:16.936Z,3.45
2022-07-26T03:08:20.181Z,3.60
2022-07-26T03:09:22.253Z,3.05
2022-07-26T03:10:26.771Z,3.35
2022-07-26T03:11:29.032Z,3.63
2022-07-26T03:12:32.641Z,3.53
2022-07-26T03:13:34.792Z,3.50
2022-07-26T03:14:37.905Z,4.03
2022-07-26T03:15:40.322Z,3.67
2022-07-26T03:16:43.728Z,3.63
2022-07-26T03:17:46.152Z,3.72
2022-07-26T03:18:49.914Z,3.20
2022-07-26T03:19:52.176Z,3.60
2022-07-26T03:20:55.405Z,2.90
2022-07-26T03:21:58.094Z,3.50
2022-07-26T03:23:01.443Z,3.42
2022-07-26T03:24:03.973Z,4.00
2022-07-26T03:25:07.664Z,3.47
2022-07-26T03:26:11.238Z,3.20
2022-07-26T03:27:14.285Z,3.30
2022-07-26T03:28:19.477Z,3.88
2022-07-26T03:29:23.828Z,3.97
2022-07-26T03:30:26.498Z,3.03
2022-07-26T03:31:29.900Z,3.20
2022-07-26T03:32:31.988Z,3.20
2022-07-26T03:33:35.141Z,3.10
2022-07-26T03:34:37.424Z,3.25
2022-07-26T03:35:40.467Z,3.28
2022-07-26T03:36:44.086Z,3.33
2022-07-26T03:37:47.356Z,3.38
2022-07-26T03:38:49.440Z,3.10
2022-07-26T03:39:52.766Z,3.08
2022-07-26T03:40:54.867Z,3.40
2022-07-26T03:41:59.463Z,2.70
2022-07-26T03:43:01.574Z,3.33
2022-07-26T03:44:06.701Z,2.90
2022-07-26T03:45:09.585Z,3.30
2022-07-26T03:46:12.650Z,2.90
2022-07-26T03:47:14.903Z,2.95
2022-07-26T03:48:17.980Z,2.95
2022-07-26T03:49:20.215Z,3.33
2022-07-26T03:50:23.398Z,3.45
2022-07-26T03:51:25.487Z,3.38
2022-07-26T03:52:28.604Z,3.63
2022-07-26T03:53:30.799Z,3.75
2022-07-26T03:54:33.953Z,3.25
2022-07-26T03:55:54.682Z,3.65
2022-07-26T03:56:58.069Z,3.50
2022-07-26T03:58:00.127Z,3.58
2022-07-26T03:59:05.976Z,3.00
2022-07-26T04:00:10.574Z,3.63
2022-07-26T04:01:12.822Z,3.15
2022-07-26T04:02:15.963Z,3.17
2022-07-26T04:03:19.412Z,3.22
2022-07-26T04:04:25.129Z,3.33
2022-07-26T04:05:28.041Z,3.35
2022-07-26T04:06:31.596Z,3.55
2022-07-26T04:07:33.720Z,3.22
2022-07-26T04:08:36.838Z,3.17
2022-07-26T04:09:39.906Z,3.33
2022-07-26T04:10:45.841Z,4.25
2022-07-26T04:11:49.172Z,3.28
2022-07-26T04:12:53.034Z,3.35
2022-07-26T04:13:56.086Z,3.35
2022-07-26T04:14:58.180Z,3.83
2022-07-26T04:16:03.530Z,3.90
2022-07-26T04:17:05.606Z,3.47
2022-07-26T04:18:08.820Z,3.72
2022-07-26T04:19:11.005Z,3.63
2022-07-26T04:20:14.212Z,3.05
2022-07-26T04:21:16.397Z,3.63
2022-07-26T04:22:19.548Z,3.70
2022-07-26T04:23:21.870Z,4.00
2022-07-26T04:24:25.549Z,4.00
2022-07-26T04:25:27.814Z,3.60
2022-07-26T04:26:43.630Z,4.00
2022-07-26T04:27:45.762Z,3.72
2022-07-26T04:28:50.232Z,4.13
2022-07-26T04:29:52.309Z,3.55
2022-07-26T04:30:55.453Z,4.15
2022-07-26T04:31:57.562Z,3.33
2022-07-26T04:33:00.556Z,4.30
2022-07-26T04:34:02.659Z,3.88
2022-07-26T04:35:06.428Z,3.75
2022-07-26T04:36:09.163Z,3.50
2022-07-26T04:37:12.218Z,3.50
2022-07-26T04:38:14.372Z,2.92
2022-07-26T04:39:17.389Z,2.60
2022-07-26T04:40:21.677Z,2.25
2022-07-26T04:41:26.971Z,2.63
2022-07-26T04:42:29.071Z,2.45
2022-07-26T04:43:32.288Z,2.72
2022-07-26T04:44:35.776Z,2.30
2022-07-26T04:45:39.216Z,2.65
2022-07-26T04:46:45.209Z,2.42
2022-07-26T04:47:50.753Z,3.00
2022-07-26T04:48:52.991Z,2.60
2022-07-26T04:49:56.201Z,2.65
2022-07-26T04:51:00.565Z,2.70
2022-07-26T04:52:02.672Z,3.03
2022-07-26T04:53:05.798Z,2.65
2022-07-26T04:54:08.267Z,2.47
2022-07-26T04:55:11.818Z,2.45
2022-07-26T04:56:14.503Z,2.63
2022-07-26T04:57:17.638Z,2.80
2022-07-26T04:58:20.766Z,2.78
2022-07-26T04:59:22.825Z,2.83
2022-07-26T05:00:27.437Z,3.00
2022-07-26T05:01:29.651Z,2.85
2022-07-26T05:02:32.924Z,2.72
2022-07-26T05:03:36.201Z,2.90
2022-07-26T05:04:38.208Z,2.80
2022-07-26T05:05:41.375Z,2.80
2022-07-26T05:06:43.545Z,2.50
2022-07-26T05:07:48.849Z,2.50
2022-07-26T05:08:50.854Z,2.40
2022-07-26T05:09:54.044Z,2.75
2022-07-26T05:10:57.663Z,3.00
2022-07-26T05:12:00.096Z,2.50
2022-07-26T05:13:04.017Z,2.78
2022-07-26T05:14:06.490Z,2.38
2022-07-26T05:15:13.977Z,3.22
2022-07-26T05:16:17.988Z,2.80
2022-07-26T05:17:22.167Z,3.05
2022-07-26T05:18:31.617Z,2.97
2022-07-26T05:19:34.162Z,2.83
2022-07-26T05:20:38.429Z,3.13
2022-07-26T05:21:40.604Z,3.15
2022-07-26T05:22:44.005Z,2.83
2022-07-26T05:23:46.068Z,2.97
2022-07-26T05:24:49.146Z,2.90
2022-07-26T05:25:51.288Z,3.17
2022-07-26T05:26:58.338Z,2.65
2022-07-26T05:28:02.622Z,2.70
2022-07-26T05:29:04.985Z,2.80
2022-07-26T05:30:09.645Z,2.95
2022-07-26T05:31:11.878Z,2.60
2022-07-26T05:32:16.736Z,2.45
2022-07-26T05:33:19.956Z,2.78
2022-07-26T05:34:24.420Z,2.90
2022-07-26T05:35:28.180Z,2.63
2022-07-26T05:36:30.645Z,2.85
2022-07-26T05:37:33.820Z,2.90
2022-07-26T05:38:35.909Z,2.70
2022-07-26T05:39:39.047Z,2.80
2022-07-26T05:40:41.190Z,2.65
2022-07-26T05:41:44.287Z,2.72
2022-07-26T05:42:46.750Z,2.90
2022-07-26T05:43:50.081Z,3.10
2022-07-26T05:44:52.622Z,2.58
2022-07-26T05:45:57.746Z,2.90
2022-07-26T05:47:00.249Z,3.42
2022-07-26T05:48:04.970Z,3.10
2022-07-26T05:49:07.877Z,2.97
2022-07-26T05:50:11.541Z,3.42
2022-07-26T05:51:13.575Z,3.20
2022-07-26T05:52:16.652Z,3.38
2022-07-26T05:53:18.756Z,3.33
2022-07-26T05:54:22.864Z,3.22
2022-07-26T05:55:25.082Z,3.38
2022-07-26T05:56:28.169Z,3.17
2022-07-26T05:57:30.985Z,3.13
2022-07-26T05:58:34.056Z,3.30
2022-07-26T05:59:36.140Z,3.65
2022-07-26T06:00:39.217Z,3.80
2022-07-26T06:01:41.980Z,3.40
2022-07-26T06:02:45.405Z,3.67
2022-07-26T06:03:49.035Z,3.33
2022-07-26T06:04:52.412Z,3.03
2022-07-26T06:05:56.834Z,2.97
2022-07-26T06:06:59.948Z,3.17
2022-07-26T06:08:01.931Z,3.42
2022-07-26T06:09:05.483Z,3.47
2022-07-26T06:10:08.397Z,3.30
2022-07-26T06:11:11.429Z,3.00
2022-07-26T06:12:14.514Z,3.50
2022-07-26T06:13:16.814Z,3.30
2022-07-26T06:14:20.061Z,3.55
2022-07-26T06:15:23.229Z,3.70
2022-07-26T06:16:25.329Z,3.30
2022-07-26T06:17:30.242Z,3.45
2022-07-26T06:18:32.744Z,3.60
2022-07-26T06:19:37.367Z,3.25
2022-07-26T06:20:39.994Z,3.78
2022-07-26T06:21:43.841Z,4.13
2022-07-26T06:22:45.894Z,4.10
2022-07-26T06:23:49.400Z,3.78
2022-07-26T06:24:51.595Z,3.63
2022-07-26T06:25:54.821Z,3.90
2022-07-26T06:27:04.932Z,3.75
2022-07-26T06:28:11.262Z,3.70
2022-07-26T06:29:13.666Z,3.80
2022-07-26T06:30:16.724Z,4.03
2022-07-26T06:31:18.934Z,4.10
2022-07-26T06:32:22.061Z,4.28
2022-07-26T06:33:24.133Z,3.40
2022-07-26T06:34:27.228Z,3.63
2022-07-26T06:35:32.101Z,3.55
2022-07-26T06:36:35.424Z,3.55
2022-07-26T06:37:38.030Z,3.17
2022-07-26T06:38:41.318Z,3.10
2022-07-26T06:39:46.362Z,2.78
2022-07-26T06:40:48.469Z,2.78
2022-07-26T06:41:51.590Z,2.17
2022-07-26T06:43:04.079Z,3.08
2022-07-26T06:44:09.154Z,3.28
2022-07-26T06:45:13.254Z,2.95
2022-07-26T06:46:17.013Z,2.40
2022-07-26T06:47:19.174Z,2.65
2022-07-26T06:48:22.318Z,2.45
2022-07-26T06:49:25.901Z,2.10
2022-07-26T06:50:28.249Z,1.83
2022-07-26T06:51:32.806Z,2.05
2022-07-26T06:52:34.955Z,1.50
2022-07-26T06:53:38.041Z,1.30
2022-07-26T06:54:40.096Z,1.40
2022-07-26T06:55:43.643Z,1.25
2022-07-26T06:56:48.000Z,1.60
2022-07-26T06:57:50.646Z,1.20
2022-07-26T06:58:55.230Z,1.30
2022-07-26T06:59:57.621Z,1.50
2022-07-26T07:01:00.749Z,0.93
2022-07-26T07:02:02.975Z,1.30
2022-07-26T07:03:05.996Z,1.10
2022-07-26T07:04:09.077Z,1.42
2022-07-26T07:05:13.007Z,1.00
2022-07-26T07:06:16.211Z,1.17
2022-07-26T07:07:20.787Z,1.40
2022-07-26T07:08:24.955Z,1.38
2022-07-26T07:09:27.291Z,1.20
2022-07-26T07:10:30.998Z,1.40
2022-07-26T07:11:33.017Z,1.60
2022-07-26T07:12:36.170Z,1.20
2022-07-26T07:13:39.303Z,1.15
2022-07-26T07:14:41.830Z,1.13
2022-07-26T07:15:44.851Z,1.58
2022-07-26T07:16:48.086Z,1.00
2022-07-26T07:17:51.660Z,1.23
2022-07-26T07:18:54.766Z,1.02
2022-07-26T07:19:56.863Z,1.20
2022-07-26T07:20:59.907Z,0.90
2022-07-26T07:22:02.147Z,1.23
2022-07-26T07:23:06.541Z,1.23
2022-07-26T07:24:09.636Z,0.93
2022-07-26T07:25:14.607Z,1.10
2022-07-26T07:26:16.919Z,1.20
2022-07-26T07:27:19.987Z,1.00
2022-07-26T07:28:22.990Z,1.00
2022-07-26T07:29:27.025Z,1.10
2022-07-26T07:30:31.341Z,0.98
2022-07-26T07:31:48.169Z,0.93
2022-07-26T07:32:52.710Z,0.80
2022-07-26T07:33:54.897Z,1.50
2022-07-26T07:34:58.196Z,1.02
2022-07-26T07:36:01.336Z,1.20
2022-07-26T07:37:04.790Z,0.90
2022-07-26T07:38:11.966Z,1.08
2022-07-26T07:39:17.432Z,0.77
2022-07-26T07:40:20.794Z,0.98
2022-07-26T07:41:23.976Z,0.82
2022-07-26T07:42:26.065Z,0.88
2022-07-26T07:43:29.266Z,1.08
2022-07-26T07:44:31.636Z,1.00
2022-07-26T07:45:34.914Z,1.00
2022-07-26T07:46:36.973Z,0.90
2022-07-26T07:47:40.176Z,1.00
2022-07-26T07:48:47.386Z,1.35
2022-07-26T07:49:51.061Z,1.65
2022-07-26T07:50:54.346Z,1.30
2022-07-26T07:51:56.439Z,1.23
2022-07-26T07:52:59.469Z,1.10
2022-07-26T07:54:06.402Z,1.50
2022-07-26T07:55:36.635Z,0.98
2022-07-26T07:56:34.457Z,1.00
2022-07-26T07:57:37.012Z,0.73
2022-07-26T07:58:40.428Z,1.10
2022-07-26T07:59:43.887Z,1.05
2022-07-26T08:00:48.089Z,0.95
2022-07-26T08:01:52.112Z,1.10
2022-07-26T08:02:54.741Z,1.17
2022-07-26T08:03:57.908Z,1.10
2022-07-26T08:05:11.442Z,0.80
2022-07-26T08:06:18.676Z,0.90
2022-07-26T08:07:21.828Z,1.20
2022-07-26T08:08:25.578Z,1.40
2022-07-26T08:09:29.879Z,1.13
2022-07-26T08:10:41.748Z,1.10
2022-07-26T08:11:54.781Z,1.00
2022-07-26T08:12:56.891Z,0.90
2022-07-26T08:14:00.063Z,1.02
2022-07-26T08:15:02.606Z,0.80
2022-07-26T08:16:10.980Z,1.10
2022-07-26T08:17:14.233Z,1.02
2022-07-26T08:18:16.709Z,0.98
2022-07-26T08:19:20.018Z,1.27
2022-07-26T08:20:25.973Z,1.48
2022-07-26T08:21:29.139Z,1.10
2022-07-26T08:22:32.569Z,1.10
2022-07-26T08:23:35.981Z,1.10
2022-07-26T08:24:40.646Z,1.25
2022-07-26T08:25:55.639Z,1.00
2022-07-26T08:27:00.375Z,1.30
2022-07-26T08:28:04.116Z,1.30
2022-07-26T08:29:07.265Z,1.10
2022-07-26T08:30:10.530Z,1.00
2022-07-26T08:31:14.235Z,1.00
2022-07-26T08:32:17.514Z,1.23
2022-07-26T08:33:19.599Z,0.90
2022-07-26T08:34:22.730Z,1.30
2022-07-26T08:35:24.911Z,1.00
2022-07-26T08:36:32.366Z,1.10
2022-07-26T08:37:36.158Z,1.10
2022-07-26T08:38:38.856Z,1.23
2022-07-26T08:39:43.326Z,1.38
2022-07-26T08:40:45.630Z,1.10
2022-07-26T08:41:48.912Z,1.00
2022-07-26T08:42:52.664Z,0.90
2022-07-26T08:43:55.975Z,1.10
2022-07-26T08:44:59.240Z,1.08
2022-07-26T08:46:03.280Z,0.80
2022-07-26T08:47:06.520Z,0.60
2022-07-26T08:48:17.789Z,0.70
2022-07-26T08:49:21.744Z,1.00
2022-07-26T08:50:24.541Z,1.13
2022-07-26T08:51:27.929Z,0.60
2022-07-26T08:52:31.111Z,0.60
2022-07-26T08:53:35.082Z,1.13
2022-07-26T08:54:37.692Z,1.10
2022-07-26T08:56:06.037Z,0.88
2022-07-26T08:57:05.300Z,0.60
2022-07-26T08:58:08.520Z,0.80
2022-07-26T08:59:20.623Z,0.80
2022-07-26T09:00:26.975Z,0.82
2022-07-26T09:01:29.380Z,0.75
2022-07-26T09:02:41.136Z,1.00
2022-07-26T09:03:45.089Z,0.90
2022-07-26T09:04:48.716Z,1.17
2022-07-26T09:05:50.768Z,0.75
2022-07-26T09:06:59.874Z,1.30
2022-07-26T09:08:23.625Z,0.80
2022-07-26T09:09:25.907Z,1.00
2022-07-26T09:10:29.263Z,1.15
2022-07-26T09:11:33.714Z,0.80
2022-07-26T09:12:37.781Z,0.73
2022-07-26T09:13:51.980Z,0.93
2022-07-26T09:14:55.659Z,1.25
2022-07-26T09:16:13.965Z,0.90
2022-07-26T09:17:18.801Z,0.90
2022-07-26T09:18:28.901Z,1.00
2022-07-26T09:19:32.063Z,0.88
2022-07-26T09:20:35.158Z,1.13
2022-07-26T09:21:37.194Z,0.80
2022-07-26T09:22:57.007Z,0.60
2022-07-26T09:23:59.921Z,0.80
2022-07-26T09:25:02.923Z,0.75
2022-07-26T09:26:05.306Z,0.75
2022-07-26T09:27:12.185Z,0.77
2022-07-26T09:28:23.919Z,0.70
2022-07-26T09:29:26.063Z,0.90
2022-07-26T09:30:30.223Z,0.82
2022-07-26T09:31:32.747Z,0.93
2022-07-26T09:32:36.895Z,0.90
2022-07-26T09:33:46.329Z,0.80
2022-07-26T09:34:54.339Z,0.90
2022-07-26T09:36:01.588Z,1.60
2022-07-26T09:37:07.377Z,1.13
2022-07-26T09:38:15.395Z,1.20
2022-07-26T09:39:17.648Z,1.05
2022-07-26T09:40:33.377Z,1.00
2022-07-26T09:42:54.406Z,1.00
2022-07-26T09:44:00.138Z,0.80
2022-07-26T09:45:02.650Z,0.90
2022-07-26T09:46:07.350Z,0.88
2022-07-26T09:47:09.818Z,1.10
2022-07-26T09:48:13.346Z,1.20
2022-07-26T09:49:20.078Z,1.23
2022-07-26T09:50:24.818Z,0.88
2022-07-26T09:51:40.484Z,0.88
2022-07-26T09:52:59.337Z,1.00
2022-07-26T09:54:02.371Z,1.15
2022-07-26T09:55:07.466Z,0.80
2022-07-26T09:56:09.517Z,1.08
2022-07-26T09:57:13.144Z,0.80
2022-07-26T09:58:19.155Z,1.25
2022-07-26T09:59:23.257Z,1.10
2022-07-26T10:00:26.739Z,1.23
2022-07-26T10:01:30.046Z,0.98
2022-07-26T10:02:33.008Z,1.08
2022-07-26T10:03:36.894Z,1.25
2022-07-26T10:04:39.212Z,1.10
2022-07-26T10:05:42.856Z,0.90
2022-07-26T10:06:45.286Z,0.90
2022-07-26T10:07:49.359Z,1.10
2022-07-26T10:08:52.008Z,1.17
2022-07-26T10:09:59.904Z,1.02
2022-07-26T10:11:05.442Z,1.02
2022-07-26T10:12:10.269Z,1.20
2022-07-26T10:13:12.973Z,1.17
2022-07-26T10:14:36.439Z,1.00
2022-07-26T10:15:44.490Z,0.95
2022-07-26T10:17:54.207Z,1.00
2022-07-26T10:18:57.989Z,0.80
2022-07-26T10:20:01.925Z,1.10
2022-07-26T10:21:20.505Z,0.90
2022-07-26T10:22:23.486Z,0.90
2022-07-26T10:23:51.168Z,1.20
2022-07-26T10:24:58.010Z,1.27
2022-07-26T10:26:02.333Z,1.00
2022-07-26T10:27:06.171Z,1.00
2022-07-26T10:28:24.102Z,1.15
2022-07-26T10:29:30.400Z,1.00
2022-07-26T10:30:35.299Z,1.50
2022-07-26T10:31:38.821Z,1.17
2022-07-26T10:32:43.457Z,1.17
2022-07-26T10:33:51.501Z,1.30
2022-07-26T10:35:59.343Z,1.10
2022-07-26T10:37:05.466Z,1.02
2022-07-26T10:38:09.777Z,1.13
2022-07-26T10:39:15.572Z,1.08
2022-07-26T10:40:21.053Z,1.30
2022-07-26T10:41:33.147Z,1.23
2022-07-26T10:42:46.153Z,1.02
2022-07-26T10:44:13.222Z,1.05
2022-07-26T10:45:24.345Z,1.30
2022-07-26T10:46:29.696Z,1.10
2022-07-26T10:47:35.369Z,1.00
2022-07-26T10:48:55.832Z,1.20
2022-07-26T10:50:00.898Z,1.25
2022-07-26T10:51:29.722Z,1.13
2022-07-26T10:52:34.008Z,1.30
2022-07-26T10:53:37.271Z,1.20
2022-07-26T10:55:09.005Z,1.10
2022-07-26T10:56:12.071Z,1.17
2022-07-26T10:57:14.111Z,1.50
2022-07-26T10:58:18.529Z,1.30
2022-07-26T10:59:54.422Z,1.27
2022-07-26T11:00:59.315Z,1.38
2022-07-26T11:02:02.171Z,1.42
2022-07-26T11:03:05.484Z,1.17
2022-07-26T11:04:19.031Z,1.30
2022-07-26T11:05:23.109Z,1.55
2022-07-26T11:06:31.147Z,1.48
2022-07-26T11:07:33.251Z,1.30
2022-07-26T11:08:36.940Z,1.42
2022-07-26T11:09:39.571Z,1.70
2022-07-26T11:10:44.027Z,1.48
2022-07-26T11:11:47.311Z,1.75
2022-07-26T11:12:59.852Z,1.67
2022-07-26T11:14:07.966Z,1.27
2022-07-26T11:15:17.961Z,1.63
2022-07-26T11:16:23.415Z,1.45
2022-07-26T11:17:29.473Z,1.35
2022-07-26T11:18:35.338Z,1.27
2022-07-26T11:19:39.893Z,1.73
2022-07-26T11:20:45.557Z,1.77
2022-07-26T11:21:56.559Z,1.60
2022-07-26T11:22:58.728Z,1.65
2022-07-26T11:24:04.426Z,1.50
2022-07-26T11:25:06.996Z,1.70
2022-07-26T11:26:16.211Z,1.60
2022-07-26T11:27:19.225Z,1.67
2022-07-26T11:28:23.593Z,1.65
2022-07-26T11:29:38.690Z,1.38
2022-07-26T11:30:56.257Z,1.50
2022-07-26T11:32:04.804Z,1.38
2022-07-26T11:33:18.777Z,1.77
2022-07-26T11:34:25.296Z,1.63
2022-07-26T11:35:30.128Z,1.55
2022-07-26T11:36:36.193Z,1.60
2022-07-26T11:37:40.725Z,1.73
2022-07-26T11:38:48.364Z,1.50
2022-07-26T11:39:51.433Z,2.22
2022-07-26T11:40:53.737Z,1.60
2022-07-26T11:41:59.254Z,1.73
2022-07-26T11:43:01.405Z,1.65
2022-07-26T11:44:05.969Z,2.00
2022-07-26T11:45:10.452Z,1.90
2022-07-26T11:46:13.566Z,1.85
2022-07-26T11:47:19.967Z,1.52
2022-07-26T11:48:22.108Z,1.95
2022-07-26T11:49:51.726Z,1.70
2022-07-26T11:50:49.552Z,1.88
2022-07-26T11:51:54.981Z,2.45
2022-07-26T11:52:58.501Z,2.35
2022-07-26T11:54:04.834Z,1.60
2022-07-26T11:55:09.075Z,1.50
2022-07-26T11:56:16.025Z,1.90
2022-07-26T11:57:20.619Z,1.50
2022-07-26T11:58:22.769Z,1.88
2022-07-26T11:59:28.366Z,1.73
2022-07-26T12:00:30.698Z,2.00
2022-07-26T12:01:33.951Z,1.70
2022-07-26T12:02:37.499Z,2.08
2022-07-26T12:03:41.704Z,1.80
2022-07-26T12:04:45.905Z,1.70
2022-07-26T12:06:02.604Z,2.03
2022-07-26T12:07:11.278Z,2.00
2022-07-26T12:08:14.781Z,1.60
2022-07-26T12:09:34.120Z,1.63
2022-07-26T12:10:37.239Z,1.88
2022-07-26T12:11:41.847Z,1.75
2022-07-26T12:12:45.005Z,1.77
2022-07-26T12:13:59.120Z,1.98
2022-07-26T12:15:04.642Z,1.50
2022-07-26T12:16:07.748Z,1.50
2022-07-26T12:17:15.095Z,1.67
2022-07-26T12:18:25.165Z,1.40
2022-07-26T12:19:29.886Z,1.33
2022-07-26T12:20:32.141Z,1.45
2022-07-26T12:21:48.203Z,1.38
2022-07-26T12:22:56.067Z,1.77
2022-07-26T12:23:59.665Z,1.38
2022-07-26T12:25:03.205Z,1.65
2022-07-26T12:26:19.014Z,1.60
2022-07-26T12:27:24.301Z,1.50
2022-07-26T12:28:41.436Z,1.40
2022-07-26T12:29:46.418Z,1.60
2022-07-26T12:30:49.248Z,1.45
2022-07-26T12:32:12.770Z,1.70
2022-07-26T12:33:14.988Z,1.55
2022-07-26T12:34:21.471Z,1.50
2022-07-26T12:35:32.312Z,1.48
2022-07-26T12:36:34.473Z,1.60
2022-07-26T12:37:41.018Z,1.65
2022-07-26T12:38:44.127Z,1.90
2022-07-26T12:40:08.093Z,2.03
2022-07-26T12:41:10.804Z,1.45
2022-07-26T12:42:33.021Z,1.98
2022-07-26T12:43:42.058Z,1.70
2022-07-26T12:44:44.310Z,1.70
2022-07-26T12:45:47.371Z,1.70
2022-07-26T12:46:49.538Z,1.65
2022-07-26T12:47:54.568Z,1.95
2022-07-26T12:49:00.205Z,1.65
2022-07-26T12:50:03.932Z,1.92
2022-07-26T12:51:07.525Z,1.55
2022-07-26T12:52:09.767Z,1.70
2022-07-26T12:53:13.070Z,1.83
2022-07-26T12:54:15.638Z,1.90
2022-07-26T12:55:22.210Z,1.33
2022-07-26T12:56:24.307Z,1.75
2022-07-26T12:57:27.802Z,1.60
2022-07-26T12:58:30.443Z,1.70
2022-07-26T12:59:33.734Z,1.70
2022-07-26T13:00:37.497Z,1.77
2022-07-26T13:01:39.761Z,1.92
2022-07-26T13:02:44.604Z,1.63
2022-07-26T13:03:47.403Z,1.50
2022-07-26T13:04:54.339Z,1.67
2022-07-26T13:06:00.222Z,1.58
2022-07-26T13:07:02.666Z,1.73
2022-07-26T13:08:06.155Z,1.73
2022-07-26T13:09:08.505Z,1.52
2022-07-26T13:11:37.044Z,1.65
2022-07-26T13:12:40.296Z,1.67
2022-07-26T13:13:42.333Z,1.55
2022-07-26T13:14:45.566Z,1.88
2022-07-26T13:15:47.877Z,1.88
2022-07-26T13:16:51.039Z,1.67
2022-07-26T13:17:54.222Z,1.50
2022-07-26T13:18:58.044Z,1.50
2022-07-26T13:20:01.236Z,1.40
2022-07-26T13:21:03.656Z,1.27
2022-07-26T13:22:08.613Z,1.17
2022-07-26T13:23:12.765Z,1.60
2022-07-26T13:24:18.910Z,1.60
2022-07-26T13:25:23.451Z,1.50
2022-07-26T13:26:28.995Z,1.42
2022-07-26T13:27:36.677Z,1.50
2022-07-26T13:28:40.640Z,1.50
2022-07-26T13:29:43.740Z,1.63
2022-07-26T13:30:45.901Z,1.40
2022-07-26T13:31:50.938Z,1.60
2022-07-26T13:32:53.928Z,1.45
2022-07-26T13:33:56.939Z,1.80
2022-07-26T13:34:59.979Z,1.67
2022-07-26T13:36:02.212Z,1.33
2022-07-26T13:37:08.434Z,1.30
2022-07-26T13:38:10.932Z,1.70
2022-07-26T13:39:14.063Z,1.42
2022-07-26T13:40:16.294Z,1.67
2022-07-26T13:41:19.345Z,1.50
2022-07-26T13:42:22.354Z,1.42
2022-07-26T13:43:25.808Z,1.33
2022-07-26T13:44:28.912Z,1.70
2022-07-26T13:45:30.968Z,1.13
2022-07-26T13:46:34.149Z,1.35
2022-07-26T13:47:36.557Z,1.40
2022-07-26T13:48:52.763Z,1.40
2022-07-26T13:50:02.810Z,1.40
2022-07-26T13:51:05.597Z,1.55
2022-07-26T13:52:12.155Z,1.55
2022-07-26T13:53:18.697Z,1.30
2022-07-26T13:54:22.082Z,1.40
2022-07-26T13:55:25.512Z,1.50
2022-07-26T13:56:28.517Z,1.58
2022-07-26T13:57:49.717Z,1.75
2022-07-26T13:58:56.095Z,1.60
2022-07-26T13:59:59.314Z,1.20
2022-07-26T14:01:02.780Z,1.40
2022-07-26T14:02:06.084Z,1.40
2022-07-26T14:03:08.530Z,1.50
2022-07-26T14:04:13.200Z,1.42
2022-07-26T14:05:16.597Z,1.30
2022-07-26T14:06:19.333Z,1.33
2022-07-26T14:07:22.370Z,1.65
2022-07-26T14:08:24.445Z,1.55
2022-07-26T14:09:27.477Z,1.30
2022-07-26T14:10:30.550Z,0.95
2022-07-26T14:11:32.692Z,1.20
2022-07-26T14:12:37.187Z,1.55
2022-07-26T14:13:40.233Z,1.58
2022-07-26T14:14:43.634Z,1.50
2022-07-26T14:15:46.661Z,1.67
2022-07-26T14:16:49.755Z,1.30
2022-07-26T14:17:52.573Z,1.20
2022-07-26T14:18:57.720Z,1.30
2022-07-26T14:20:00.825Z,1.10
2022-07-26T14:21:07.351Z,1.20
2022-07-26T14:22:13.543Z,1.05
2022-07-26T14:23:16.589Z,0.90
2022-07-26T14:24:18.660Z,1.42
2022-07-26T14:25:25.177Z,1.20
2022-07-26T14:26:30.310Z,1.77
2022-07-26T14:27:33.630Z,1.20
2022-07-26T14:28:36.707Z,1.48